Time;durP1;ratioP1;P1;durP2;ratioP2;P2;SDS_P1;SDS_P2;PMS_P1;PMS_P2;Temp;Humidity;BMP_temperature;BMP_pressure;BME280_temperature;BME280_humidity;BME280_pressure;Samples;Min_cycle;Max_cycle;Signal;HPM_P1;HPM_P2
2021/12/18 00:02:01;;;;;;;;;;;3.50;20.20;;;;;;5102463;27;19993;-70
2021/12/18 00:04:30;;;;;;;;;;;3.40;20.60;;;;;;5102459;28;19927;-69
2021/12/18 00:06:57;;;;;;;;;;;3.50;20.60;;;;;;5079707;27;19998;-69
2021/12/18 00:09:28;;;;;;;;;;;3.40;20.40;;;;;;5100779;28;19949;-69
2021/12/18 00:11:56;;;;;;;;;;;3.40;20.80;;;;;;5086847;28;20003;-69
2021/12/18 00:14:26;;;;;;;;;;;3.40;20.60;;;;;;5104550;28;19942;-70
2021/12/18 00:16:54;;;;;;;;;;;3.40;20.60;;;;;;5106761;27;19924;-70
2021/12/18 00:19:25;;;;;;;;;;;3.40;21.00;;;;;;5101921;27;20015;-70
2021/12/18 00:21:54;;;;;;;;;;;3.40;20.30;;;;;;5084688;28;19923;-70
2021/12/18 00:24:22;;;;;;;;;;;3.30;20.80;;;;;;5081567;28;19919;-70
2021/12/18 00:26:49;;;;;;;;;;;3.30;20.90;;;;;;5100233;28;20413;-70
2021/12/18 00:29:18;;;;;;;;;;;3.30;21.40;;;;;;5098516;28;19976;-70
2021/12/18 00:31:47;;;;;;;;;;;3.40;21.30;;;;;;5098652;27;19928;-70
2021/12/18 00:34:15;;;;;;;;;;;3.40;21.20;;;;;;5079624;28;20327;-70
2021/12/18 00:36:43;;;;;;;;;;;3.30;21.50;;;;;;5099010;28;20105;-70
2021/12/18 00:39:13;;;;;;;;;;;3.30;21.40;;;;;;5098463;28;19920;-70
2021/12/18 00:41:59;;;;;;;;;;;3.40;21.80;;;;;;5101513;28;20350;-70
2021/12/18 00:44:27;;;;;;;;;;;3.30;20.90;;;;;;5099905;28;20354;-69
2021/12/18 00:46:56;;;;;;;;;;;3.30;21.80;;;;;;5082142;28;19942;-69
2021/12/18 00:49:25;;;;;;;;;;;3.40;21.40;;;;;;5066662;27;20343;-70
2021/12/18 00:51:54;;;;;;;;;;;3.30;21.50;;;;;;5099576;28;19938;-70
2021/12/18 00:54:22;;;;;;;;;;;3.30;21.90;;;;;;5097548;27;20237;-69
2021/12/18 00:56:50;;;;;;;;;;;3.40;21.90;;;;;;5099793;28;19959;-70
2021/12/18 00:59:18;;;;;;;;;;;3.40;21.70;;;;;;5082079;28;19966;-70
2021/12/18 01:01:50;;;;;;;;;;;3.40;21.90;;;;;;5104021;27;19926;-71
2021/12/18 01:04:19;;;;;;;;;;;3.30;21.70;;;;;;5103855;28;20260;-69
2021/12/18 01:06:47;;;;;;;;;;;3.30;22.00;;;;;;5081368;28;19919;-71
2021/12/18 01:09:18;;;;;;;;;;;3.30;22.00;;;;;;5085257;28;19993;-70
2021/12/18 01:11:48;;;;;;;;;;;3.20;22.00;;;;;;5104728;28;20026;-69
2021/12/18 01:14:29;;;;;;;;;;;3.20;22.80;;;;;;5084953;28;19923;-70
2021/12/18 01:22:42;;;;;;;;;;;3.20;23.10;;;;;;5100242;27;20372;-70
2021/12/18 01:22:49;;;;;;;;;;;3.20;23.00;;;;;;5105573;28;20272;-70
2021/12/18 01:25:18;;;;;;;;;;;3.20;23.00;;;;;;5099310;28;19970;-70
2021/12/18 01:27:46;;;;;;;;;;;3.20;23.00;;;;;;5101810;28;20007;-68
2021/12/18 01:30:15;;;;;;;;;;;3.20;22.80;;;;;;5096621;28;19924;-68
2021/12/18 01:32:43;;;;;;;;;;;3.20;22.70;;;;;;5105991;28;19923;-70
2021/12/18 01:35:13;;;;;;;;;;;3.30;22.80;;;;;;5101993;28;20426;-70
2021/12/18 01:37:42;;;;;;;;;;;3.20;22.50;;;;;;5103765;28;19962;-70
2021/12/18 01:40:10;;;;;;;;;;;3.30;22.90;;;;;;5098353;28;19926;-70
2021/12/18 01:45:32;;;;;;;;;;;3.20;22.60;;;;;;5081818;28;20472;-70
2021/12/18 01:53:32;;;;;;;;;;;3.20;22.70;;;;;;5088968;27;19920;-70
2021/12/18 01:56:00;;;;;;;;;;;3.20;23.00;;;;;;5080924;28;19923;-71
2021/12/18 01:58:28;;;;;;;;;;;3.20;22.60;;;;;;5077750;28;19920;-70
2021/12/18 02:01:02;;;;;;;;;;;3.20;23.00;;;;;;5097487;28;19920;-70
2021/12/18 02:03:34;;;;;;;;;;;3.20;22.40;;;;;;5104201;27;19944;-70
2021/12/18 02:06:03;;;;;;;;;;;3.00;22.40;;;;;;5102743;27;20397;-72
2021/12/18 02:08:34;;;;;;;;;;;3.10;23.20;;;;;;5090390;28;20030;-69
2021/12/18 02:11:12;;;;;;;;;;;3.20;22.10;;;;;;5097992;28;19920;-71
2021/12/18 02:14:02;;;;;;;;;;;3.10;22.70;;;;;;5095007;28;19919;-71
2021/12/18 02:19:47;;;;;;;;;;;3.00;23.80;;;;;;5097249;27;19920;-70
2021/12/18 02:22:18;;;;;;;;;;;3.10;24.20;;;;;;5099689;28;19928;-70
2021/12/18 02:24:47;;;;;;;;;;;2.90;24.50;;;;;;5105374;27;19967;-70
2021/12/18 02:27:15;;;;;;;;;;;3.00;24.60;;;;;;5080145;28;19942;-70
2021/12/18 02:29:43;;;;;;;;;;;3.00;25.10;;;;;;5100233;28;19919;-70
2021/12/18 02:32:11;;;;;;;;;;;3.10;24.80;;;;;;5086168;28;19980;-70
2021/12/18 02:34:41;;;;;;;;;;;3.00;23.60;;;;;;5100198;28;20014;-70
2021/12/18 02:37:12;;;;;;;;;;;3.00;24.70;;;;;;5104086;28;19930;-70
2021/12/18 02:40:44;;;;;;;;;;;3.10;23.80;;;;;;5079797;28;20449;-69
2021/12/18 02:42:34;;;;;;;;;;;3.10;23.80;;;;;;5082446;28;20317;-70
2021/12/18 02:45:02;;;;;;;;;;;3.00;23.50;;;;;;5095096;27;20038;-70
2021/12/18 02:47:30;;;;;;;;;;;2.90;24.40;;;;;;5102683;28;19934;-70
2021/12/18 02:49:58;;;;;;;;;;;2.90;24.10;;;;;;5096718;28;20012;-70
2021/12/18 02:52:27;;;;;;;;;;;2.90;24.70;;;;;;5078047;28;19920;-70
2021/12/18 02:54:57;;;;;;;;;;;3.00;25.10;;;;;;5097926;28;20022;-71
2021/12/18 02:57:24;;;;;;;;;;;3.00;24.70;;;;;;5104341;28;20030;-70
2021/12/18 02:59:54;;;;;;;;;;;3.00;24.50;;;;;;5102354;28;19931;-69
2021/12/18 03:02:22;;;;;;;;;;;3.00;24.50;;;;;;5101735;28;19919;-70
2021/12/18 03:04:55;;;;;;;;;;;3.10;24.80;;;;;;5095196;28;19962;-70
2021/12/18 03:07:27;;;;;;;;;;;3.10;24.30;;;;;;5105281;28;19926;-70
2021/12/18 03:24:20;;;;;;;;;;;3.00;23.10;;;;;;5088998;28;19920;-71
2021/12/18 03:26:50;;;;;;;;;;;3.00;23.00;;;;;;5091594;28;19926;-70
2021/12/18 03:29:18;;;;;;;;;;;2.80;23.90;;;;;;5097831;28;19982;-70
2021/12/18 03:31:45;;;;;;;;;;;2.80;24.60;;;;;;5100200;28;19930;-70
2021/12/18 03:34:13;;;;;;;;;;;2.80;25.00;;;;;;5103699;28;20010;-70
2021/12/18 03:36:41;;;;;;;;;;;2.90;25.00;;;;;;5100076;28;19934;-70
2021/12/18 03:39:09;;;;;;;;;;;2.90;24.60;;;;;;5098613;28;19950;-70
2021/12/18 03:41:37;;;;;;;;;;;2.90;25.00;;;;;;5100561;28;20367;-70
2021/12/18 03:44:07;;;;;;;;;;;2.90;24.60;;;;;;5105339;28;19965;-70
2021/12/18 03:46:35;;;;;;;;;;;2.90;24.70;;;;;;5100446;28;19926;-70
2021/12/18 03:49:03;;;;;;;;;;;2.90;25.00;;;;;;5093368;28;19997;-70
2021/12/18 03:51:31;;;;;;;;;;;3.00;25.10;;;;;;5099853;28;20190;-71
2021/12/18 03:53:59;;;;;;;;;;;3.00;25.10;;;;;;5101052;28;19950;-70
2021/12/18 03:56:29;;;;;;;;;;;2.90;25.10;;;;;;5100108;28;19920;-70
2021/12/18 03:58:57;;;;;;;;;;;3.00;25.20;;;;;;5098604;28;19926;-70
2021/12/18 04:01:27;;;;;;;;;;;2.90;25.30;;;;;;5082113;28;19920;-70
2021/12/18 04:03:55;;;;;;;;;;;2.80;26.00;;;;;;5103558;28;20022;-70
2021/12/18 04:06:23;;;;;;;;;;;2.70;26.80;;;;;;5100611;28;19927;-70
2021/12/18 04:08:51;;;;;;;;;;;2.80;26.50;;;;;;5104486;27;19924;-69
2021/12/18 04:11:20;;;;;;;;;;;2.60;25.00;;;;;;5102958;27;20370;-69
2021/12/18 04:13:48;;;;;;;;;;;2.70;26.80;;;;;;5103104;28;19920;-68
2021/12/18 04:16:17;;;;;;;;;;;2.80;26.30;;;;;;5098180;27;19920;-69
2021/12/18 04:18:46;;;;;;;;;;;2.80;25.90;;;;;;5105044;28;20008;-70
2021/12/18 04:21:22;;;;;;;;;;;2.70;25.90;;;;;;5070190;28;19923;-69
2021/12/18 04:23:50;;;;;;;;;;;2.70;25.80;;;;;;5088770;28;19966;-70
2021/12/18 04:26:18;;;;;;;;;;;2.80;26.50;;;;;;5100303;28;20058;-70
2021/12/18 04:28:46;;;;;;;;;;;2.70;25.80;;;;;;5105144;28;19920;-70
2021/12/18 04:31:13;;;;;;;;;;;2.70;26.30;;;;;;5105826;27;19926;-70
2021/12/18 04:33:46;;;;;;;;;;;2.70;26.10;;;;;;5103433;27;20026;-69
2021/12/18 04:36:15;;;;;;;;;;;2.60;26.80;;;;;;5103627;28;20375;-70
2021/12/18 04:38:43;;;;;;;;;;;2.50;27.20;;;;;;5100440;28;20367;-69
2021/12/18 04:41:11;;;;;;;;;;;2.50;27.50;;;;;;5102253;28;20508;-69
2021/12/18 04:43:40;;;;;;;;;;;2.40;28.60;;;;;;5089582;28;20410;-69
2021/12/18 04:46:07;;;;;;;;;;;2.40;29.00;;;;;;5102209;27;19919;-70
2021/12/18 04:48:35;;;;;;;;;;;2.40;28.60;;;;;;5104101;28;19920;-70
2021/12/18 04:51:04;;;;;;;;;;;2.50;29.00;;;;;;5100843;28;20454;-68
2021/12/18 04:53:32;;;;;;;;;;;2.50;28.80;;;;;;5103225;28;19930;-68
2021/12/18 04:56:00;;;;;;;;;;;2.50;29.20;;;;;;5100769;28;19923;-69
2021/12/18 04:58:28;;;;;;;;;;;2.50;29.30;;;;;;5110204;27;19980;-69
2021/12/18 05:00:56;;;;;;;;;;;2.50;28.90;;;;;;5101398;28;19920;-69
2021/12/18 05:03:24;;;;;;;;;;;2.60;29.60;;;;;;5107071;27;19976;-69
2021/12/18 05:05:53;;;;;;;;;;;2.60;28.50;;;;;;5099979;28;19923;-69
2021/12/18 05:08:23;;;;;;;;;;;2.40;28.80;;;;;;5104091;28;20371;-68
2021/12/18 05:10:51;;;;;;;;;;;2.40;29.50;;;;;;5102522;27;19926;-68
2021/12/18 05:13:20;;;;;;;;;;;2.50;29.30;;;;;;5099805;28;19928;-69
2021/12/18 05:15:48;;;;;;;;;;;2.60;29.40;;;;;;5100347;28;20534;-68
2021/12/18 05:18:16;;;;;;;;;;;2.60;28.70;;;;;;5098694;28;19919;-68
2021/12/18 05:20:44;;;;;;;;;;;2.60;28.30;;;;;;5100843;27;19924;-70
2021/12/18 05:23:14;;;;;;;;;;;2.70;28.30;;;;;;5101409;28;20483;-69
2021/12/18 05:25:43;;;;;;;;;;;2.50;28.70;;;;;;5085102;27;20035;-69
2021/12/18 05:28:11;;;;;;;;;;;2.40;29.00;;;;;;5103194;28;19926;-69
2021/12/18 05:30:39;;;;;;;;;;;2.50;29.70;;;;;;5100241;27;20003;-69
2021/12/18 05:33:06;;;;;;;;;;;2.50;29.50;;;;;;5103255;28;20409;-69
2021/12/18 05:35:34;;;;;;;;;;;2.60;29.20;;;;;;5100892;28;20378;-69
2021/12/18 05:38:06;;;;;;;;;;;2.60;28.80;;;;;;5101864;28;19977;-69
2021/12/18 05:40:34;;;;;;;;;;;2.50;28.90;;;;;;5084095;28;20388;-69
2021/12/18 05:43:05;;;;;;;;;;;2.60;28.20;;;;;;5100334;28;19947;-66
2021/12/18 05:45:35;;;;;;;;;;;2.70;28.70;;;;;;5099913;27;20070;-68
2021/12/18 05:48:03;;;;;;;;;;;2.70;28.30;;;;;;5099446;28;19939;-68
2021/12/18 05:50:33;;;;;;;;;;;2.70;28.30;;;;;;5095366;28;19928;-68
2021/12/18 05:53:01;;;;;;;;;;;2.80;27.80;;;;;;5097651;28;20022;-68
2021/12/18 05:55:30;;;;;;;;;;;2.70;27.20;;;;;;5097582;28;19919;-68
2021/12/18 05:57:58;;;;;;;;;;;2.80;27.60;;;;;;5097874;27;19962;-68
2021/12/18 06:00:30;;;;;;;;;;;2.70;27.40;;;;;;5096524;28;20010;-68
2021/12/18 06:02:58;;;;;;;;;;;2.80;28.30;;;;;;5100298;28;19923;-68
2021/12/18 06:05:26;;;;;;;;;;;2.80;27.50;;;;;;5101452;27;19976;-68
2021/12/18 06:07:56;;;;;;;;;;;2.80;27.90;;;;;;5105166;28;20434;-68
2021/12/18 06:10:25;;;;;;;;;;;2.80;27.40;;;;;;5099993;27;19973;-67
2021/12/18 06:12:53;;;;;;;;;;;2.80;27.90;;;;;;5100484;28;19971;-67
2021/12/18 06:15:20;;;;;;;;;;;2.80;27.40;;;;;;5101745;28;20002;-68
2021/12/18 06:17:49;;;;;;;;;;;2.90;27.80;;;;;;5095867;28;19919;-68
2021/12/18 06:20:17;;;;;;;;;;;2.90;26.50;;;;;;5104134;27;20364;-67
2021/12/18 06:22:45;;;;;;;;;;;2.80;26.80;;;;;;5098476;28;20006;-68
2021/12/18 06:25:13;;;;;;;;;;;2.90;26.90;;;;;;5099577;27;19931;-68
2021/12/18 06:27:41;;;;;;;;;;;2.80;26.70;;;;;;5101671;28;20305;-68
2021/12/18 06:30:11;;;;;;;;;;;2.80;26.40;;;;;;5105784;27;19934;-67
2021/12/18 06:32:39;;;;;;;;;;;2.90;26.60;;;;;;5095164;27;20375;-67
2021/12/18 06:35:09;;;;;;;;;;;2.90;26.30;;;;;;5099287;28;20015;-67
2021/12/18 06:37:38;;;;;;;;;;;2.90;26.70;;;;;;5103034;28;21571;-67
2021/12/18 06:40:09;;;;;;;;;;;2.90;25.60;;;;;;5101384;28;19935;-67
2021/12/18 06:42:38;;;;;;;;;;;2.90;25.10;;;;;;5086562;28;20380;-67
2021/12/18 06:45:06;;;;;;;;;;;2.80;24.20;;;;;;5099553;28;19920;-67
2021/12/18 06:47:34;;;;;;;;;;;2.90;25.10;;;;;;5097486;28;20040;-67
2021/12/18 06:50:02;;;;;;;;;;;2.70;25.10;;;;;;5102554;27;19931;-67
2021/12/18 06:52:32;;;;;;;;;;;2.70;24.80;;;;;;5104602;27;19919;-67
2021/12/18 06:55:00;;;;;;;;;;;2.70;24.20;;;;;;5093867;28;20365;-67
2021/12/18 06:57:28;;;;;;;;;;;2.80;24.30;;;;;;5097507;28;19985;-70
2021/12/18 06:59:56;;;;;;;;;;;2.80;23.80;;;;;;5102730;28;19928;-68
2021/12/18 07:02:23;;;;;;;;;;;2.80;24.20;;;;;;5081380;28;19923;-68
2021/12/18 07:04:52;;;;;;;;;;;2.80;23.90;;;;;;5096163;28;20011;-68
2021/12/18 07:07:19;;;;;;;;;;;2.80;23.60;;;;;;5102085;28;19941;-68
2021/12/18 07:09:49;;;;;;;;;;;2.80;23.70;;;;;;5101171;28;20087;-68
2021/12/18 07:12:17;;;;;;;;;;;2.80;23.80;;;;;;5085863;28;20337;-68
2021/12/18 07:14:44;;;;;;;;;;;2.80;22.90;;;;;;5098356;28;20014;-67
2021/12/18 07:17:12;;;;;;;;;;;2.80;23.50;;;;;;5102953;28;20006;-68
2021/12/18 07:19:40;;;;;;;;;;;2.80;23.60;;;;;;5102624;28;20006;-67
2021/12/18 07:22:08;;;;;;;;;;;2.80;24.00;;;;;;5100184;28;19928;-67
2021/12/18 07:24:39;;;;;;;;;;;2.70;23.30;;;;;;5095194;28;19981;-67
2021/12/18 07:27:12;;;;;;;;;;;2.70;23.40;;;;;;5103900;28;19934;-67
2021/12/18 07:29:40;;;;;;;;;;;2.70;23.90;;;;;;5099119;28;19920;-68
2021/12/18 07:32:08;;;;;;;;;;;2.80;23.20;;;;;;5096604;28;19959;-68
2021/12/18 07:34:52;;;;;;;;;;;2.90;22.90;;;;;;5077701;28;19928;-68
2021/12/18 07:37:20;;;;;;;;;;;2.80;23.40;;;;;;5105900;27;20030;-68
2021/12/18 07:39:48;;;;;;;;;;;2.90;23.50;;;;;;5098552;28;19920;-68
2021/12/18 07:42:18;;;;;;;;;;;2.90;22.40;;;;;;5103102;27;19924;-67
2021/12/18 07:44:46;;;;;;;;;;;2.90;22.30;;;;;;5090832;28;20560;-68
2021/12/18 07:47:14;;;;;;;;;;;3.00;22.70;;;;;;5100728;28;19946;-68
2021/12/18 07:49:42;;;;;;;;;;;3.10;22.70;;;;;;5084412;28;20023;-67
2021/12/18 07:52:12;;;;;;;;;;;3.10;21.80;;;;;;5101933;27;20045;-68
2021/12/18 07:54:39;;;;;;;;;;;3.10;21.80;;;;;;5106566;28;20010;-68
2021/12/18 07:57:07;;;;;;;;;;;3.10;21.80;;;;;;5104585;28;19924;-69
2021/12/18 07:59:37;;;;;;;;;;;3.10;21.90;;;;;;5083546;28;20062;-66
2021/12/18 08:02:05;;;;;;;;;;;3.10;21.80;;;;;;5101718;28;19934;-68
2021/12/18 08:04:33;;;;;;;;;;;3.10;21.80;;;;;;5103333;28;19966;-67
2021/12/18 08:07:01;;;;;;;;;;;3.10;21.80;;;;;;5104426;28;19924;-68
2021/12/18 08:09:29;;;;;;;;;;;3.20;22.40;;;;;;5105893;28;19919;-68
2021/12/18 08:11:57;;;;;;;;;;;3.20;21.90;;;;;;5104360;27;19928;-68
2021/12/18 08:14:25;;;;;;;;;;;3.20;21.10;;;;;;5105610;28;20027;-68
2021/12/18 08:16:54;;;;;;;;;;;3.10;21.80;;;;;;5103021;27;20014;-68
2021/12/18 08:19:23;;;;;;;;;;;3.20;21.90;;;;;;5092781;28;19920;-69
2021/12/18 08:21:51;;;;;;;;;;;3.20;21.80;;;;;;5093118;27;20018;-68
2021/12/18 08:24:19;;;;;;;;;;;3.20;21.20;;;;;;5103497;28;19927;-69
2021/12/18 08:26:47;;;;;;;;;;;3.10;21.00;;;;;;5094514;27;19942;-68
2021/12/18 08:29:15;;;;;;;;;;;3.30;21.80;;;;;;5101627;28;19924;-68
2021/12/18 08:31:43;;;;;;;;;;;3.30;21.20;;;;;;5098824;28;20034;-68
2021/12/18 08:34:12;;;;;;;;;;;3.40;21.40;;;;;;5108387;27;19927;-68
2021/12/18 08:36:40;;;;;;;;;;;3.40;20.10;;;;;;5100698;28;20022;-67
2021/12/18 08:39:09;;;;;;;;;;;3.40;19.80;;;;;;5105209;27;19994;-68
2021/12/18 08:41:38;;;;;;;;;;;3.30;20.20;;;;;;5104800;28;19919;-68
2021/12/18 08:44:08;;;;;;;;;;;3.40;21.40;;;;;;5105130;28;19973;-67
2021/12/18 08:46:36;;;;;;;;;;;3.40;20.70;;;;;;5104129;28;19919;-68
2021/12/18 08:49:05;;;;;;;;;;;3.30;19.70;;;;;;5106110;27;19932;-68
2021/12/18 08:51:36;;;;;;;;;;;3.30;20.80;;;;;;5102096;28;20019;-68
2021/12/18 08:54:03;;;;;;;;;;;3.30;20.90;;;;;;5107503;27;19928;-69
2021/12/18 08:56:31;;;;;;;;;;;3.40;20.70;;;;;;5085061;28;20520;-68
2021/12/18 08:59:00;;;;;;;;;;;3.40;19.50;;;;;;5104183;28;19955;-68
2021/12/18 09:01:28;;;;;;;;;;;3.50;19.80;;;;;;5102298;28;20382;-68
2021/12/18 09:03:56;;;;;;;;;;;3.50;19.40;;;;;;5089657;28;19977;-67
2021/12/18 09:06:25;;;;;;;;;;;3.50;19.60;;;;;;5092155;28;19938;-69
2021/12/18 09:08:54;;;;;;;;;;;3.60;19.30;;;;;;5088641;28;19930;-68
2021/12/18 09:11:22;;;;;;;;;;;3.60;18.70;;;;;;5100523;28;19924;-68
2021/12/18 09:13:50;;;;;;;;;;;3.50;18.60;;;;;;5088273;28;20034;-69
2021/12/18 09:16:18;;;;;;;;;;;3.50;18.80;;;;;;5095010;28;19943;-68
2021/12/18 09:18:46;;;;;;;;;;;3.60;19.60;;;;;;5102724;28;19997;-67
2021/12/18 09:21:15;;;;;;;;;;;3.60;19.20;;;;;;5099225;28;19939;-69
2021/12/18 09:23:43;;;;;;;;;;;3.40;19.60;;;;;;5103014;28;19920;-68
2021/12/18 09:26:12;;;;;;;;;;;3.30;20.40;;;;;;5099387;27;19978;-69
2021/12/18 09:28:40;;;;;;;;;;;3.40;21.80;;;;;;5100371;27;19966;-67
2021/12/18 09:31:09;;;;;;;;;;;3.60;20.20;;;;;;5098599;28;19919;-68
2021/12/18 09:33:37;;;;;;;;;;;3.60;19.10;;;;;;5100020;28;20267;-68
2021/12/18 09:36:05;;;;;;;;;;;3.50;20.20;;;;;;5100313;28;19980;-69
2021/12/18 09:38:34;;;;;;;;;;;3.60;19.90;;;;;;5096347;28;19928;-69
2021/12/18 09:41:06;;;;;;;;;;;3.40;19.80;;;;;;5097062;28;20375;-68
2021/12/18 09:43:36;;;;;;;;;;;3.40;20.70;;;;;;5091803;28;20018;-70
2021/12/18 09:46:04;;;;;;;;;;;3.40;19.70;;;;;;5085014;28;19978;-67
2021/12/18 09:48:32;;;;;;;;;;;3.40;20.20;;;;;;5103046;28;19930;-67
2021/12/18 09:51:02;;;;;;;;;;;3.20;21.00;;;;;;5101342;27;20363;-68
2021/12/18 09:53:30;;;;;;;;;;;3.40;19.90;;;;;;5082655;28;20371;-68
2021/12/18 09:55:58;;;;;;;;;;;3.50;20.20;;;;;;5095502;28;20316;-69
2021/12/18 09:58:26;;;;;;;;;;;3.60;18.70;;;;;;5101746;28;19924;-68
2021/12/18 10:00:57;;;;;;;;;;;3.40;18.70;;;;;;5102509;27;20019;-68
2021/12/18 10:03:40;;;;;;;;;;;3.60;18.90;;;;;;5106215;28;20295;-67
2021/12/18 10:06:28;;;;;;;;;;;3.60;18.70;;;;;;5101522;28;20055;-67
2021/12/18 10:08:56;;;;;;;;;;;3.50;18.70;;;;;;5098998;27;19980;-68
2021/12/18 10:11:24;;;;;;;;;;;3.70;18.80;;;;;;5100330;27;19930;-68
2021/12/18 10:13:54;;;;;;;;;;;3.60;18.40;;;;;;5099234;28;19919;-69
2021/12/18 10:16:27;;;;;;;;;;;3.50;18.70;;;;;;5093622;28;19997;-69
2021/12/18 10:18:55;;;;;;;;;;;3.40;19.70;;;;;;5090829;28;19935;-68
2021/12/18 10:21:24;;;;;;;;;;;3.50;19.20;;;;;;5095492;27;19969;-69
2021/12/18 10:23:53;;;;;;;;;;;3.40;19.70;;;;;;5101343;28;19920;-68
2021/12/18 10:26:29;;;;;;;;;;;3.50;19.40;;;;;;5079749;28;20276;-68
2021/12/18 10:28:57;;;;;;;;;;;3.60;18.70;;;;;;5102167;28;19930;-68
2021/12/18 10:31:39;;;;;;;;;;;3.60;19.50;;;;;;5097478;28;20014;-68
2021/12/18 10:34:15;;;;;;;;;;;3.70;19.30;;;;;;5098594;28;19928;-68
2021/12/18 10:36:59;;;;;;;;;;;3.60;18.70;;;;;;5100541;28;20371;-68
2021/12/18 10:39:29;;;;;;;;;;;3.70;18.80;;;;;;5099345;28;20512;-68
2021/12/18 10:41:57;;;;;;;;;;;3.60;18.80;;;;;;5102855;27;19931;-68
2021/12/18 10:44:25;;;;;;;;;;;3.60;18.70;;;;;;5104055;28;19964;-68
2021/12/18 10:46:54;;;;;;;;;;;3.30;20.00;;;;;;5101003;27;19973;-68
2021/12/18 10:49:22;;;;;;;;;;;3.30;20.50;;;;;;5104869;28;19924;-68
2021/12/18 10:51:56;;;;;;;;;;;3.20;20.70;;;;;;5098258;28;19927;-68
2021/12/18 10:54:26;;;;;;;;;;;3.30;20.50;;;;;;5105945;27;19926;-67
2021/12/18 10:56:55;;;;;;;;;;;3.30;20.60;;;;;;5098542;28;19934;-68
2021/12/18 10:59:24;;;;;;;;;;;3.60;20.20;;;;;;5100552;28;19931;-68
2021/12/18 11:01:53;;;;;;;;;;;3.60;18.70;;;;;;5093391;28;19960;-68
2021/12/18 11:04:26;;;;;;;;;;;3.30;20.40;;;;;;5099813;28;19924;-68
2021/12/18 11:06:55;;;;;;;;;;;3.40;20.10;;;;;;5092135;28;20058;-68
2021/12/18 11:09:28;;;;;;;;;;;3.50;19.40;;;;;;5109811;27;19998;-68
2021/12/18 11:14:47;;;;;;;;;;;3.50;20.70;;;;;;5108274;28;19945;-68
2021/12/18 11:17:16;;;;;;;;;;;3.50;19.30;;;;;;5107063;28;19919;-68
2021/12/18 11:19:45;;;;;;;;;;;3.40;20.00;;;;;;5107648;28;20361;-68
2021/12/18 11:22:16;;;;;;;;;;;3.50;20.10;;;;;;5110667;27;20022;-68
2021/12/18 11:24:47;;;;;;;;;;;3.30;20.10;;;;;;5106695;27;19999;-68
2021/12/18 11:27:16;;;;;;;;;;;3.40;21.00;;;;;;5110109;27;20363;-67
2021/12/18 11:29:46;;;;;;;;;;;3.60;20.30;;;;;;5104128;28;19920;-68
2021/12/18 11:32:17;;;;;;;;;;;3.50;19.30;;;;;;5103493;27;19920;-68
2021/12/18 11:34:47;;;;;;;;;;;3.60;20.40;;;;;;5105595;28;20002;-67
2021/12/18 11:37:16;;;;;;;;;;;3.70;18.80;;;;;;5100484;28;19920;-68
2021/12/18 11:39:45;;;;;;;;;;;3.60;18.90;;;;;;5111413;27;20287;-69
2021/12/18 11:42:13;;;;;;;;;;;3.50;19.00;;;;;;5102793;28;19926;-67
2021/12/18 11:44:42;;;;;;;;;;;3.60;18.70;;;;;;5109780;27;20317;-68
2021/12/18 11:47:28;;;;;;;;;;;3.70;19.60;;;;;;5103576;27;19932;-68
2021/12/18 11:49:58;;;;;;;;;;;3.70;18.80;;;;;;5091617;27;20379;-68
2021/12/18 11:52:26;;;;;;;;;;;3.60;19.00;;;;;;5104721;27;19969;-68
2021/12/18 11:54:56;;;;;;;;;;;3.70;19.80;;;;;;5105715;27;19927;-69
2021/12/18 11:57:35;;;;;;;;;;;4.00;18.90;;;;;;5100593;27;20367;-68
2021/12/18 12:00:06;;;;;;;;;;;4.00;17.50;;;;;;5087985;28;20394;-68
2021/12/18 12:02:44;;;;;;;;;;;3.90;18.20;;;;;;5108468;27;20033;-67
2021/12/18 12:05:13;;;;;;;;;;;3.90;18.10;;;;;;5107146;27;20377;-67
2021/12/18 12:07:43;;;;;;;;;;;4.00;17.70;;;;;;5109546;27;20450;-68
2021/12/18 12:10:23;;;;;;;;;;;4.00;17.10;;;;;;5090745;28;20569;-68
2021/12/18 12:12:52;;;;;;;;;;;3.80;17.40;;;;;;5104278;27;19919;-68
2021/12/18 12:15:21;;;;;;;;;;;3.80;17.40;;;;;;5111242;28;19939;-69
2021/12/18 12:17:54;;;;;;;;;;;3.80;17.80;;;;;;5109789;27;20034;-68
2021/12/18 12:20:40;;;;;;;;;;;3.90;18.00;;;;;;5108404;27;19942;-68
2021/12/18 12:23:11;;;;;;;;;;;3.70;18.30;;;;;;5096465;28;19927;-68
2021/12/18 12:25:40;;;;;;;;;;;3.70;17.50;;;;;;5097686;28;20027;-68
2021/12/18 12:28:09;;;;;;;;;;;3.90;16.90;;;;;;5097309;28;20660;-68
2021/12/18 12:30:43;;;;;;;;;;;3.70;16.80;;;;;;5103798;28;20019;-68
2021/12/18 12:33:20;;;;;;;;;;;3.60;17.70;;;;;;5098154;27;20056;-68
2021/12/18 12:35:59;;;;;;;;;;;3.60;18.50;;;;;;5098078;28;20359;-68
2021/12/18 12:38:29;;;;;;;;;;;3.40;19.30;;;;;;5081297;28;19924;-68
2021/12/18 12:40:57;;;;;;;;;;;3.50;18.80;;;;;;5098355;27;20371;-68
2021/12/18 12:43:28;;;;;;;;;;;3.40;19.70;;;;;;5093002;28;19991;-68
2021/12/18 12:45:59;;;;;;;;;;;3.50;18.70;;;;;;5097754;27;19930;-69
2021/12/18 12:48:57;;;;;;;;;;;3.50;19.20;;;;;;5096626;28;19920;-68
2021/12/18 12:51:25;;;;;;;;;;;3.50;18.60;;;;;;5095289;27;19920;-68
2021/12/18 12:53:55;;;;;;;;;;;3.60;18.70;;;;;;5095849;28;19924;-68
2021/12/18 12:56:24;;;;;;;;;;;3.60;18.70;;;;;;5099096;27;19923;-68
2021/12/18 12:59:06;;;;;;;;;;;3.90;18.20;;;;;;5105401;27;20014;-68
2021/12/18 13:01:38;;;;;;;;;;;3.70;17.60;;;;;;5084037;28;20010;-68
2021/12/18 13:04:06;;;;;;;;;;;3.70;17.00;;;;;;5083633;28;19951;-68
2021/12/18 13:06:34;;;;;;;;;;;3.70;18.10;;;;;;5096867;27;20014;-68
2021/12/18 13:09:07;;;;;;;;;;;3.60;18.00;;;;;;5104153;28;19977;-68
2021/12/18 13:11:45;;;;;;;;;;;3.70;18.40;;;;;;5081495;27;19934;-68
2021/12/18 13:14:13;;;;;;;;;;;3.60;17.00;;;;;;5098706;27;19926;-67
2021/12/18 13:16:42;;;;;;;;;;;3.60;18.10;;;;;;5099654;27;19923;-68
2021/12/18 13:19:11;;;;;;;;;;;3.60;17.60;;;;;;5100265;27;19977;-67
2021/12/18 13:21:40;;;;;;;;;;;3.60;17.90;;;;;;5095841;28;19967;-67
2021/12/18 13:24:10;;;;;;;;;;;3.50;17.80;;;;;;5102629;27;20014;-67
2021/12/18 13:26:39;;;;;;;;;;;3.50;18.50;;;;;;5101005;27;19928;-67
2021/12/18 13:29:08;;;;;;;;;;;3.50;17.00;;;;;;5098998;27;20702;-68
2021/12/18 13:31:44;;;;;;;;;;;3.60;18.40;;;;;;5096062;28;19962;-68
2021/12/18 13:34:12;;;;;;;;;;;3.60;18.50;;;;;;5103609;27;19923;-68
2021/12/18 13:36:42;;;;;;;;;;;3.60;18.20;;;;;;5098385;28;20030;-70
2021/12/18 13:39:12;;;;;;;;;;;3.60;17.10;;;;;;5086356;28;19919;-71
2021/12/18 13:41:55;;;;;;;;;;;3.60;18.10;;;;;;5099744;27;19923;-68
2021/12/18 13:44:23;;;;;;;;;;;3.60;18.70;;;;;;5105663;28;20305;-68
2021/12/18 13:46:51;;;;;;;;;;;3.50;18.60;;;;;;5099040;28;19928;-69
2021/12/18 13:49:20;;;;;;;;;;;3.50;19.90;;;;;;5104239;27;19919;-68
2021/12/18 13:51:49;;;;;;;;;;;3.50;19.00;;;;;;5101562;27;19924;-68
2021/12/18 13:54:19;;;;;;;;;;;3.50;19.30;;;;;;5102563;28;19955;-68
2021/12/18 13:56:49;;;;;;;;;;;3.70;19.20;;;;;;5082245;28;19927;-69
2021/12/18 13:59:18;;;;;;;;;;;3.70;18.80;;;;;;5104285;27;19969;-69
2021/12/18 14:01:48;;;;;;;;;;;3.60;19.30;;;;;;5100131;28;20027;-69
2021/12/18 14:04:17;;;;;;;;;;;3.60;19.60;;;;;;5101939;27;20038;-68
2021/12/18 14:06:58;;;;;;;;;;;3.50;19.70;;;;;;5104360;27;20010;-69
2021/12/18 14:09:29;;;;;;;;;;;3.50;19.50;;;;;;5089067;28;20631;-70
2021/12/18 14:12:02;;;;;;;;;;;3.60;19.30;;;;;;5080979;28;19967;-69
2021/12/18 14:14:34;;;;;;;;;;;3.60;19.70;;;;;;5072939;28;19928;-69
2021/12/18 14:17:03;;;;;;;;;;;3.50;19.70;;;;;;5101550;28;20031;-68
2021/12/18 14:19:32;;;;;;;;;;;3.60;20.20;;;;;;5102705;28;19924;-68
2021/12/18 14:22:00;;;;;;;;;;;3.50;20.60;;;;;;5099823;28;20425;-69
2021/12/18 14:24:31;;;;;;;;;;;3.70;20.50;;;;;;5100297;28;19919;-67
2021/12/18 14:27:00;;;;;;;;;;;3.70;19.80;;;;;;5102307;28;20578;-69
2021/12/18 14:29:31;;;;;;;;;;;3.80;19.20;;;;;;5102731;28;19969;-69
2021/12/18 14:32:00;;;;;;;;;;;3.70;19.30;;;;;;5098760;27;20434;-68
2021/12/18 14:34:29;;;;;;;;;;;3.80;19.40;;;;;;5103521;27;19920;-70
2021/12/18 14:37:02;;;;;;;;;;;3.80;20.20;;;;;;5100924;27;19920;-67
2021/12/18 14:39:36;;;;;;;;;;;3.60;21.30;;;;;;5098206;28;20058;-69
2021/12/18 14:42:08;;;;;;;;;;;3.60;21.50;;;;;;5099256;28;20034;-68
2021/12/18 14:44:42;;;;;;;;;;;3.60;21.90;;;;;;5099961;28;19966;-69
2021/12/18 14:47:14;;;;;;;;;;;3.60;22.10;;;;;;5098466;28;19985;-69
2021/12/18 14:49:56;;;;;;;;;;;3.60;22.10;;;;;;5102534;28;19924;-68
2021/12/18 14:52:25;;;;;;;;;;;3.60;22.20;;;;;;5080895;28;19919;-68
2021/12/18 14:54:55;;;;;;;;;;;3.70;22.20;;;;;;5096053;28;21372;-67
2021/12/18 14:57:24;;;;;;;;;;;3.70;22.20;;;;;;5102786;28;20023;-67
2021/12/18 15:00:07;;;;;;;;;;;3.80;22.30;;;;;;5098873;28;19920;-68
2021/12/18 15:02:52;;;;;;;;;;;3.70;22.00;;;;;;5097649;27;20014;-69
2021/12/18 15:05:20;;;;;;;;;;;3.70;22.20;;;;;;5099497;28;19927;-68
2021/12/18 15:08:10;;;;;;;;;;;3.60;22.80;;;;;;5099850;28;19920;-68
2021/12/18 15:10:56;;;;;;;;;;;3.70;22.90;;;;;;5100006;28;19959;-68
2021/12/18 15:13:26;;;;;;;;;;;3.60;22.90;;;;;;5093684;28;20583;-68
2021/12/18 15:16:17;;;;;;;;;;;3.60;23.40;;;;;;5086910;28;20026;-70
2021/12/18 15:18:46;;;;;;;;;;;3.60;23.30;;;;;;5072242;28;20012;-68
2021/12/18 15:21:17;;;;;;;;;;;3.70;23.40;;;;;;5099405;28;19939;-70